createdAt,value
2022-11-24T00:00:55.755Z,44.62
2022-11-24T00:01:55.805Z,44.62
2022-11-24T00:02:55.886Z,44.62
2022-11-24T00:03:55.713Z,44.51
2022-11-24T00:04:55.717Z,44.51
2022-11-24T00:05:55.683Z,44.62
2022-11-24T00:06:55.665Z,44.72
2022-11-24T00:07:55.695Z,44.72
2022-11-24T00:08:55.696Z,44.82
2022-11-24T00:09:58.630Z,44.72
2022-11-24T00:10:58.662Z,44.72
2022-11-24T00:11:55.605Z,44.72
2022-11-24T00:12:55.601Z,44.93
2022-11-24T00:13:55.575Z,44.82
2022-11-24T00:14:55.605Z,45.03
2022-11-24T00:15:55.547Z,45.15
2022-11-24T00:16:55.587Z,45.67
2022-11-24T00:17:55.526Z,45.56
2022-11-24T00:18:55.509Z,45.56
2022-11-24T00:19:55.487Z,45.77
2022-11-24T00:20:55.535Z,46.08
2022-11-24T00:21:55.468Z,45.98
2022-11-24T00:22:55.456Z,46.00
2022-11-24T00:23:55.439Z,46.21
2022-11-24T00:24:55.433Z,46.51
2022-11-24T00:25:55.418Z,46.51
2022-11-24T00:26:55.437Z,46.41
2022-11-24T00:27:55.457Z,46.51
2022-11-24T00:28:55.377Z,46.62
2022-11-24T00:29:58.370Z,46.72
2022-11-24T00:30:58.401Z,46.93
2022-11-24T00:31:55.340Z,46.75
2022-11-24T00:32:55.322Z,46.95
2022-11-24T00:33:55.340Z,46.85
2022-11-24T00:34:55.301Z,47.06
2022-11-24T00:35:55.278Z,46.95
2022-11-24T00:36:55.298Z,46.95
2022-11-24T00:37:55.303Z,46.95
2022-11-24T00:38:55.242Z,47.06
2022-11-24T00:39:55.240Z,46.95
2022-11-24T00:40:55.203Z,47.06
2022-11-24T00:41:55.192Z,46.87
2022-11-24T00:42:55.182Z,46.66
2022-11-24T00:43:55.194Z,46.44
2022-11-24T00:44:55.153Z,46.54
2022-11-24T00:45:55.286Z,46.44
2022-11-24T00:46:55.206Z,46.33
2022-11-24T00:47:55.166Z,46.33
2022-11-24T00:48:55.101Z,46.25
2022-11-24T00:49:58.084Z,46.25
2022-11-24T00:50:58.085Z,46.23
2022-11-24T00:51:55.055Z,46.25
2022-11-24T00:52:55.043Z,46.25
2022-11-24T00:53:55.076Z,46.36
2022-11-24T00:54:55.055Z,46.36
2022-11-24T00:55:54.996Z,46.36
2022-11-24T00:56:54.994Z,46.66
2022-11-24T00:57:54.975Z,46.56
2022-11-24T00:58:54.958Z,46.56
2022-11-24T00:59:55.019Z,46.66
2022-11-24T01:00:54.943Z,46.56
2022-11-24T01:01:54.964Z,46.66
2022-11-24T01:02:54.966Z,46.87
2022-11-24T01:03:54.886Z,46.66
2022-11-24T01:04:54.896Z,46.69
2022-11-24T01:05:54.895Z,46.69
2022-11-24T01:06:54.848Z,46.58
2022-11-24T01:07:54.956Z,46.48
2022-11-24T01:08:54.820Z,46.48
2022-11-24T01:09:57.800Z,46.48
2022-11-24T01:10:57.808Z,46.36
2022-11-24T01:11:54.788Z,46.17
2022-11-24T01:12:54.766Z,46.37
2022-11-24T01:13:54.814Z,46.27
2022-11-24T01:14:54.742Z,46.48
2022-11-24T01:15:54.764Z,46.48
2022-11-24T01:16:54.709Z,46.27
2022-11-24T01:17:54.700Z,46.48
2022-11-24T01:18:54.681Z,46.58
2022-11-24T01:19:54.703Z,46.58
2022-11-24T01:20:54.678Z,46.48
2022-11-24T01:21:54.634Z,46.69
2022-11-24T01:22:54.621Z,46.48
2022-11-24T01:23:54.610Z,46.48
2022-11-24T01:24:54.612Z,46.58
2022-11-24T01:25:54.644Z,46.81
2022-11-24T01:26:54.569Z,46.60
2022-11-24T01:27:54.550Z,46.70
2022-11-24T01:28:54.543Z,46.70
2022-11-24T01:29:57.523Z,46.60
2022-11-24T01:30:57.622Z,46.60
2022-11-24T01:31:54.524Z,46.81
2022-11-24T01:32:54.485Z,46.91
2022-11-24T01:33:54.464Z,46.60
2022-11-24T01:34:54.484Z,46.70
2022-11-24T01:35:54.455Z,46.60
2022-11-24T01:36:54.437Z,46.60
2022-11-24T01:37:54.414Z,46.70
2022-11-24T01:38:54.441Z,46.70
2022-11-24T01:39:54.393Z,46.60
2022-11-24T01:40:54.384Z,46.91
2022-11-24T01:41:54.366Z,46.91
2022-11-24T01:42:54.357Z,46.81
2022-11-24T01:43:54.529Z,46.91
2022-11-24T01:44:54.336Z,46.50
2022-11-24T01:45:54.330Z,46.83
2022-11-24T01:46:54.297Z,46.62
2022-11-24T01:47:54.278Z,46.94
2022-11-24T01:48:54.274Z,46.62
2022-11-24T01:49:57.277Z,46.83
2022-11-24T01:50:57.257Z,47.14
2022-11-24T01:51:54.227Z,46.73
2022-11-24T01:52:54.217Z,46.94
2022-11-24T01:53:54.246Z,46.83
2022-11-24T01:54:54.192Z,47.04
2022-11-24T01:55:54.178Z,46.83
2022-11-24T01:56:54.157Z,46.94
2022-11-24T01:57:54.141Z,46.62
2022-11-24T01:58:54.129Z,46.52
2022-11-24T01:59:54.177Z,46.52
2022-11-24T02:00:54.102Z,46.42
2022-11-24T02:01:54.110Z,46.31
2022-11-24T02:02:54.165Z,46.09
2022-11-24T02:03:54.061Z,46.19
2022-11-24T02:04:54.053Z,46.09
2022-11-24T02:05:54.077Z,45.88
2022-11-24T02:06:54.018Z,45.88
2022-11-24T02:07:54.071Z,45.57
2022-11-24T02:08:54.010Z,45.67
2022-11-24T02:09:56.971Z,45.57
2022-11-24T02:10:56.978Z,45.34
2022-11-24T02:11:53.941Z,45.23
2022-11-24T02:12:53.941Z,45.34
2022-11-24T02:13:53.911Z,45.23
2022-11-24T02:14:53.932Z,45.13
2022-11-24T02:15:53.935Z,44.93
2022-11-24T02:16:53.881Z,45.03
2022-11-24T02:17:53.853Z,44.93
2022-11-24T02:18:53.855Z,44.82
2022-11-24T02:19:53.882Z,44.82
2022-11-24T02:20:53.814Z,44.82
2022-11-24T02:21:53.817Z,44.62
2022-11-24T02:22:53.792Z,44.72
2022-11-24T02:23:53.776Z,44.62
2022-11-24T02:24:53.769Z,44.72
2022-11-24T02:25:53.803Z,44.62
2022-11-24T02:26:53.734Z,44.49
2022-11-24T02:27:54.329Z,44.49
2022-11-24T02:28:53.721Z,44.49
2022-11-24T02:29:56.697Z,44.49
2022-11-24T02:30:56.790Z,44.59
2022-11-24T02:31:53.662Z,44.49
2022-11-24T02:32:53.659Z,44.49
2022-11-24T02:33:53.636Z,44.49
2022-11-24T02:34:53.625Z,44.49
2022-11-24T02:35:53.606Z,44.49
2022-11-24T02:36:53.660Z,44.28
2022-11-24T02:37:53.576Z,44.38
2022-11-24T02:38:53.569Z,44.28
2022-11-24T02:39:53.567Z,44.38
2022-11-24T02:40:53.546Z,44.38
2022-11-24T02:41:53.528Z,44.28
2022-11-24T02:42:53.547Z,44.28
2022-11-24T02:43:53.504Z,44.28
2022-11-24T02:44:53.487Z,44.28
2022-11-24T02:45:53.561Z,44.18
2022-11-24T02:46:53.472Z,44.28
2022-11-24T02:47:53.477Z,44.08
2022-11-24T02:48:53.448Z,44.08
2022-11-24T02:49:56.434Z,44.26
2022-11-24T02:50:56.420Z,44.06
2022-11-24T02:51:53.393Z,44.06
2022-11-24T02:52:53.381Z,44.16
2022-11-24T02:53:53.417Z,44.16
2022-11-24T02:54:53.350Z,44.06
2022-11-24T02:55:53.342Z,44.06
2022-11-24T02:56:53.334Z,44.06
2022-11-24T02:58:00.823Z,44.06
2022-11-24T02:58:53.327Z,44.06
2022-11-24T02:59:53.321Z,43.95
2022-11-24T03:00:53.278Z,43.95
2022-11-24T03:01:53.308Z,43.95
2022-11-24T03:02:53.311Z,43.95
2022-11-24T03:03:53.280Z,43.95
2022-11-24T03:04:53.242Z,44.26
2022-11-24T03:05:53.216Z,44.06
2022-11-24T03:06:53.207Z,43.85
2022-11-24T03:07:53.256Z,43.95
2022-11-24T03:08:53.171Z,44.06
2022-11-24T03:09:56.209Z,43.93
2022-11-24T03:10:56.155Z,43.83
2022-11-24T03:11:53.128Z,43.83
2022-11-24T03:12:53.134Z,43.93
2022-11-24T03:13:53.098Z,43.93
2022-11-24T03:14:53.089Z,43.93
2022-11-24T03:15:53.135Z,43.73
2022-11-24T03:16:53.058Z,43.83
2022-11-24T03:17:53.039Z,43.62
2022-11-24T03:18:53.038Z,43.73
2022-11-24T03:19:53.011Z,43.73
2022-11-24T03:20:53.059Z,43.73
2022-11-24T03:21:52.990Z,43.73
2022-11-24T03:22:52.987Z,43.62
2022-11-24T03:23:52.970Z,43.62
2022-11-24T03:24:52.951Z,43.62
2022-11-24T03:25:52.943Z,43.52
2022-11-24T03:26:52.981Z,43.52
2022-11-24T03:27:52.900Z,43.73
2022-11-24T03:28:52.904Z,100.00
2022-11-24T03:29:55.882Z,100.00
2022-11-24T03:30:55.988Z,100.00
2022-11-24T03:31:52.845Z,50.00
2022-11-24T03:32:52.891Z,43.71
2022-11-24T03:33:52.826Z,43.71
2022-11-24T03:34:52.812Z,43.71
2022-11-24T03:35:52.802Z,43.50
2022-11-24T03:36:52.786Z,43.50
2022-11-24T03:37:52.767Z,43.50
2022-11-24T03:38:52.813Z,43.40
2022-11-24T03:39:52.736Z,43.40
2022-11-24T03:40:52.733Z,43.50
2022-11-24T03:41:52.715Z,43.29
2022-11-24T03:42:52.706Z,43.50
2022-11-24T03:43:52.678Z,43.19
2022-11-24T03:44:52.733Z,43.29
2022-11-24T03:45:52.655Z,43.29
2022-11-24T03:46:52.650Z,100.00
2022-11-24T03:47:52.635Z,100.00
2022-11-24T03:48:52.625Z,100.00
2022-11-24T03:49:55.641Z,100.00
2022-11-24T03:50:55.587Z,100.00
2022-11-24T03:51:55.591Z,100.00
2022-11-24T03:52:52.570Z,100.00
2022-11-24T03:53:52.548Z,100.00
2022-11-24T03:54:52.528Z,100.00
2022-11-24T03:55:52.566Z,100.00
2022-11-24T03:56:52.497Z,100.00
2022-11-24T03:57:52.494Z,100.00
2022-11-24T03:58:52.469Z,100.00
2022-11-24T03:59:52.459Z,100.00
2022-11-24T04:00:52.450Z,100.00
2022-11-24T04:01:52.502Z,100.00
2022-11-24T04:02:52.469Z,100.00
2022-11-24T04:03:52.408Z,100.00
2022-11-24T04:04:52.400Z,100.00
2022-11-24T04:05:52.382Z,100.00
2022-11-24T04:06:52.423Z,100.00
2022-11-24T04:07:52.401Z,100.00
2022-11-24T04:08:52.333Z,100.00
2022-11-24T04:09:52.320Z,100.00
2022-11-24T04:10:55.302Z,100.00
2022-11-24T04:11:55.345Z,100.00
2022-11-24T04:12:52.342Z,100.00
2022-11-24T04:13:52.272Z,100.00
2022-11-24T04:14:52.252Z,100.00
2022-11-24T04:15:52.327Z,100.00
2022-11-24T04:16:52.236Z,100.00
2022-11-24T04:17:52.214Z,100.00
2022-11-24T04:18:52.246Z,100.00
2022-11-24T04:19:52.184Z,100.00
2022-11-24T04:20:52.182Z,100.00
2022-11-24T04:21:52.156Z,100.00
2022-11-24T04:22:52.134Z,100.00
2022-11-24T04:23:52.129Z,100.00
2022-11-24T04:24:52.166Z,100.00
2022-11-24T04:25:52.097Z,100.00
2022-11-24T04:26:52.083Z,100.00
2022-11-24T04:27:52.085Z,100.00
2022-11-24T04:28:52.056Z,100.00
2022-11-24T04:29:52.046Z,100.00
2022-11-24T04:30:55.138Z,100.00
2022-11-24T04:31:55.037Z,100.00
2022-11-24T04:32:52.001Z,100.00
2022-11-24T04:33:51.987Z,100.00
2022-11-24T04:34:51.968Z,100.00
2022-11-24T04:35:51.963Z,100.00
2022-11-24T04:36:51.989Z,100.00
2022-11-24T04:37:51.928Z,100.00
2022-11-24T04:39:24.421Z,100.00
2022-11-24T04:39:52.901Z,100.00
2022-11-24T04:40:51.882Z,100.00
2022-11-24T04:41:51.879Z,100.00
2022-11-24T04:42:51.909Z,100.00
2022-11-24T04:43:51.851Z,100.00
2022-11-24T04:44:51.840Z,100.00
2022-11-24T04:45:51.821Z,100.00
2022-11-24T04:46:51.884Z,100.00
2022-11-24T04:47:51.790Z,100.00
2022-11-24T04:48:51.804Z,100.00
2022-11-24T04:49:51.762Z,100.00
2022-11-24T04:50:54.753Z,100.00
2022-11-24T04:51:54.780Z,100.00
2022-11-24T04:52:51.733Z,100.00
2022-11-24T04:53:51.783Z,100.00
2022-11-24T04:54:51.695Z,100.00
2022-11-24T04:55:51.684Z,100.00
2022-11-24T04:56:51.663Z,100.00
2022-11-24T04:57:51.663Z,100.00
2022-11-24T04:58:51.642Z,100.00
2022-11-24T04:59:51.683Z,100.00
2022-11-24T05:00:51.624Z,100.00
2022-11-24T05:01:51.645Z,100.00
2022-11-24T05:02:51.584Z,100.00
2022-11-24T05:03:51.607Z,100.00
2022-11-24T05:04:51.561Z,100.00
2022-11-24T05:05:51.571Z,100.00
2022-11-24T05:06:51.535Z,100.00
2022-11-24T05:07:51.621Z,100.00
2022-11-24T05:08:51.505Z,100.00
2022-11-24T05:09:59.185Z,100.00
2022-11-24T05:10:55.486Z,100.00
2022-11-24T05:11:54.478Z,100.00
2022-11-24T05:12:51.544Z,100.00
2022-11-24T05:13:51.437Z,100.00
2022-11-24T05:14:51.426Z,100.00
2022-11-24T05:15:51.517Z,100.00
2022-11-24T05:16:51.406Z,100.00
2022-11-24T05:17:51.397Z,100.00
2022-11-24T05:18:51.369Z,100.00
2022-11-24T05:19:51.365Z,100.00
2022-11-24T05:20:51.383Z,100.00
2022-11-24T05:21:51.331Z,100.00
2022-11-24T05:22:51.318Z,100.00
2022-11-24T05:23:51.332Z,100.00
2022-11-24T05:24:51.299Z,100.00
2022-11-24T05:25:51.278Z,100.00
2022-11-24T05:26:51.298Z,100.00
2022-11-24T05:27:51.249Z,100.00
2022-11-24T05:28:51.248Z,100.00
2022-11-24T05:29:51.228Z,100.00
2022-11-24T05:30:54.275Z,100.00
2022-11-24T05:31:54.272Z,100.00
2022-11-24T05:32:51.188Z,100.00
2022-11-24T05:33:51.173Z,100.00
2022-11-24T05:34:51.162Z,100.00
2022-11-24T05:35:51.152Z,100.00
2022-11-24T05:36:51.140Z,100.00
2022-11-24T05:37:51.143Z,100.00
2022-11-24T05:38:51.108Z,100.00
2022-11-24T05:39:51.102Z,100.00
2022-11-24T05:40:51.090Z,100.00
2022-11-24T05:41:51.074Z,100.00
2022-11-24T05:42:51.093Z,100.00
2022-11-24T05:43:51.051Z,100.00
2022-11-24T05:44:51.036Z,100.00
2022-11-24T05:45:51.023Z,100.00
2022-11-24T05:46:51.023Z,100.00
2022-11-24T05:47:50.996Z,100.00
2022-11-24T05:48:51.054Z,100.00
2022-11-24T05:49:50.966Z,100.00
2022-11-24T05:50:53.954Z,100.00
2022-11-24T05:51:53.955Z,100.00
2022-11-24T05:52:50.936Z,100.00
2022-11-24T05:53:50.922Z,100.00
2022-11-24T05:54:50.956Z,100.00
2022-11-24T05:55:50.896Z,100.00
2022-11-24T05:56:50.876Z,100.00
2022-11-24T05:57:50.877Z,100.00
2022-11-24T05:58:50.856Z,100.00
2022-11-24T05:59:50.845Z,100.00
2022-11-24T06:00:50.859Z,100.00
2022-11-24T06:01:50.872Z,100.00
2022-11-24T06:02:50.977Z,100.00
2022-11-24T06:03:50.787Z,100.00
2022-11-24T06:04:50.776Z,100.00
2022-11-24T06:05:50.758Z,100.00
2022-11-24T06:06:50.737Z,100.00
2022-11-24T06:07:50.808Z,100.00
2022-11-24T06:08:50.768Z,100.00
2022-11-24T06:09:50.707Z,100.00
2022-11-24T06:10:53.690Z,100.00
2022-11-24T06:11:53.698Z,100.00
2022-11-24T06:12:50.679Z,100.00
2022-11-24T06:13:50.690Z,100.00
2022-11-24T06:14:50.691Z,100.00
2022-11-24T06:15:50.630Z,100.00
2022-11-24T06:16:50.643Z,100.00
2022-11-24T06:17:50.600Z,100.00
2022-11-24T06:18:50.588Z,100.00
2022-11-24T06:19:50.580Z,100.00
2022-11-24T06:21:09.734Z,100.00
2022-11-24T06:21:51.552Z,100.00
2022-11-24T06:22:50.539Z,100.00
2022-11-24T06:23:50.524Z,100.00
2022-11-24T06:24:50.502Z,100.00
2022-11-24T06:25:51.702Z,100.00
2022-11-24T06:26:50.531Z,100.00
2022-11-24T06:27:50.462Z,100.00
2022-11-24T06:28:50.466Z,100.00
2022-11-24T06:29:50.443Z,100.00
2022-11-24T06:30:53.423Z,100.00
2022-11-24T06:31:53.627Z,100.00
2022-11-24T06:32:50.414Z,100.00
2022-11-24T06:33:50.394Z,100.00
2022-11-24T06:34:50.377Z,100.00
2022-11-24T06:35:50.363Z,100.00
2022-11-24T06:36:50.353Z,100.00
2022-11-24T06:37:50.376Z,100.00
2022-11-24T06:38:50.334Z,100.00
2022-11-24T06:39:50.315Z,100.00
2022-11-24T06:40:50.294Z,100.00
2022-11-24T06:41:50.285Z,100.00
2022-11-24T06:42:50.268Z,100.00
2022-11-24T06:43:50.336Z,100.00
2022-11-24T06:44:50.246Z,100.00
2022-11-24T06:45:50.266Z,100.00
2022-11-24T06:46:50.228Z,100.00
2022-11-24T06:47:50.215Z,100.00
2022-11-24T06:48:50.198Z,100.00
2022-11-24T06:49:50.237Z,100.00
2022-11-24T06:50:53.163Z,100.00
2022-11-24T06:51:53.168Z,100.00
2022-11-24T06:52:50.137Z,100.00
2022-11-24T06:53:50.131Z,100.00
2022-11-24T06:54:50.118Z,100.00
2022-11-24T06:55:50.138Z,100.00
2022-11-24T06:56:50.089Z,100.00
2022-11-24T06:57:50.081Z,100.00
2022-11-24T06:58:50.068Z,100.00
2022-11-24T06:59:50.061Z,100.00
2022-11-24T07:00:50.072Z,100.00
2022-11-24T07:01:50.081Z,100.00
2022-11-24T07:02:50.089Z,100.00
2022-11-24T07:03:50.000Z,100.00
2022-11-24T07:04:49.990Z,100.00
2022-11-24T07:05:49.971Z,100.00
2022-11-24T07:06:49.959Z,100.00
2022-11-24T07:07:51.013Z,100.00
2022-11-24T07:08:49.933Z,100.00
2022-11-24T07:09:49.930Z,100.00
2022-11-24T07:10:52.914Z,100.00
2022-11-24T07:11:52.914Z,100.00
2022-11-24T07:12:49.889Z,100.00
2022-11-24T07:13:53.679Z,100.00
2022-11-24T07:14:50.852Z,100.00
2022-11-24T07:15:49.842Z,100.00
2022-11-24T07:16:49.884Z,100.00
2022-11-24T07:17:49.810Z,100.00
2022-11-24T07:18:49.801Z,100.00
2022-11-24T07:19:49.822Z,100.00
2022-11-24T07:20:49.763Z,100.00
2022-11-24T07:21:49.762Z,100.00
2022-11-24T07:22:49.743Z,100.00
2022-11-24T07:23:49.744Z,100.00
2022-11-24T07:24:49.715Z,100.00
2022-11-24T07:25:49.763Z,100.00
2022-11-24T07:26:49.697Z,100.00
2022-11-24T07:27:49.694Z,100.00
2022-11-24T07:28:49.665Z,100.00
2022-11-24T07:29:49.654Z,100.00
2022-11-24T07:30:52.675Z,100.00
2022-11-24T07:31:52.686Z,100.00
2022-11-24T07:32:49.626Z,100.00
2022-11-24T07:33:49.636Z,100.00
2022-11-24T07:34:49.596Z,100.00
2022-11-24T07:35:49.594Z,100.00
2022-11-24T07:36:49.567Z,100.00
2022-11-24T07:37:49.556Z,100.00
2022-11-24T07:38:49.566Z,100.00
2022-11-24T07:39:49.534Z,100.00
2022-11-24T07:40:49.518Z,100.00
2022-11-24T07:41:49.497Z,100.00
2022-11-24T07:42:49.492Z,100.00
2022-11-24T07:43:49.478Z,100.00
2022-11-24T07:44:49.506Z,100.00
2022-11-24T07:45:49.510Z,100.00
2022-11-24T07:46:49.428Z,100.00
2022-11-24T07:47:49.437Z,100.00
2022-11-24T07:48:49.416Z,100.00
2022-11-24T07:49:49.398Z,100.00
2022-11-24T07:50:55.805Z,100.00
2022-11-24T07:51:52.400Z,100.00
2022-11-24T07:52:49.358Z,100.00
2022-11-24T07:53:49.362Z,100.00
2022-11-24T07:54:49.329Z,100.00
2022-11-24T07:55:49.371Z,100.00
2022-11-24T07:56:49.302Z,100.00
2022-11-24T07:57:49.291Z,100.00
2022-11-24T07:58:52.835Z,100.00
2022-11-24T07:59:49.261Z,100.00
2022-11-24T08:00:49.242Z,100.00
2022-11-24T08:01:49.321Z,100.00
2022-11-24T08:02:49.220Z,100.00
2022-11-24T08:03:49.219Z,100.00
2022-11-24T08:04:49.199Z,100.00
2022-11-24T08:06:16.061Z,100.00
2022-11-24T08:06:50.217Z,100.00
2022-11-24T08:07:49.186Z,100.00
2022-11-24T08:08:49.148Z,100.00
2022-11-24T08:09:49.115Z,100.00
2022-11-24T08:10:52.101Z,100.00
2022-11-24T08:11:52.141Z,100.00
2022-11-24T08:12:49.080Z,100.00
2022-11-24T08:13:49.064Z,100.00
2022-11-24T08:14:49.057Z,100.00
2022-11-24T08:15:49.046Z,100.00
2022-11-24T08:16:49.056Z,100.00
2022-11-24T08:17:49.054Z,100.00
2022-11-24T08:18:49.006Z,100.00
2022-11-24T08:19:48.976Z,100.00
2022-11-24T08:20:48.965Z,100.00
2022-11-24T08:21:48.945Z,100.00
2022-11-24T08:22:48.945Z,100.00
2022-11-24T08:23:48.995Z,100.00
2022-11-24T08:24:48.919Z,100.00
2022-11-24T08:25:52.889Z,100.00
2022-11-24T08:26:49.888Z,100.00
2022-11-24T08:27:48.867Z,100.00
2022-11-24T08:28:48.867Z,100.00
2022-11-24T08:29:48.910Z,100.00
2022-11-24T08:30:51.840Z,100.00
2022-11-24T08:31:51.903Z,100.00
2022-11-24T08:32:48.807Z,100.00
2022-11-24T08:33:48.787Z,100.00
2022-11-24T08:34:48.788Z,100.00
2022-11-24T08:35:48.798Z,100.00
2022-11-24T08:36:48.762Z,100.00
2022-11-24T08:37:48.739Z,100.00
2022-11-24T08:38:48.740Z,100.00
2022-11-24T08:39:48.779Z,100.00
2022-11-24T08:40:48.690Z,100.00
2022-11-24T08:41:48.689Z,100.00
2022-11-24T08:42:48.670Z,100.00
2022-11-24T08:43:48.671Z,100.00
2022-11-24T08:44:48.640Z,100.00
2022-11-24T08:45:48.698Z,100.00
2022-11-24T08:46:48.628Z,100.00
2022-11-24T08:47:48.611Z,100.00
2022-11-24T08:48:48.591Z,100.00
2022-11-24T08:49:48.573Z,100.00
2022-11-24T08:50:51.591Z,100.00
2022-11-24T08:51:51.610Z,100.00
2022-11-24T08:52:48.582Z,100.00
2022-11-24T08:53:48.513Z,100.00
2022-11-24T08:54:48.513Z,100.00
2022-11-24T08:55:48.491Z,100.00
2022-11-24T08:56:48.488Z,100.00
2022-11-24T08:57:48.493Z,100.00
2022-11-24T08:58:56.074Z,100.00
2022-11-24T08:59:48.425Z,100.00
2022-11-24T09:00:48.414Z,100.00
2022-11-24T09:01:48.405Z,100.00
2022-11-24T09:02:48.455Z,100.00
2022-11-24T09:03:50.746Z,100.00
2022-11-24T09:04:48.419Z,100.00
2022-11-24T09:05:52.771Z,100.00
2022-11-24T09:06:49.963Z,100.00
2022-11-24T09:07:48.381Z,100.00
2022-11-24T09:08:48.545Z,100.00
2022-11-24T09:09:48.305Z,100.00
2022-11-24T09:10:51.428Z,100.00
2022-11-24T09:11:51.295Z,100.00
2022-11-24T09:12:48.256Z,100.00
2022-11-24T09:13:48.246Z,100.00
2022-11-24T09:14:48.280Z,100.00
2022-11-24T09:15:48.206Z,100.00
2022-11-24T09:16:48.331Z,100.00
2022-11-24T09:17:48.190Z,100.00
2022-11-24T09:18:48.177Z,100.00
2022-11-24T09:19:48.157Z,100.00
2022-11-24T09:20:48.176Z,100.00
2022-11-24T09:21:48.132Z,100.00
2022-11-24T09:22:48.118Z,100.00
2022-11-24T09:23:48.118Z,100.00
2022-11-24T09:24:48.120Z,100.00
2022-11-24T09:25:48.089Z,100.00
2022-11-24T09:26:48.102Z,100.00
2022-11-24T09:27:48.052Z,100.00
2022-11-24T09:28:48.038Z,100.00
2022-11-24T09:29:48.052Z,100.00
2022-11-24T09:30:51.051Z,100.00
2022-11-24T09:31:51.073Z,100.00
2022-11-24T09:32:47.987Z,100.00
2022-11-24T09:33:47.973Z,100.00
2022-11-24T09:34:47.971Z,100.00
2022-11-24T09:35:47.942Z,100.00
2022-11-24T09:36:47.932Z,100.00
2022-11-24T09:37:47.943Z,100.00
2022-11-24T09:38:47.912Z,100.00
2022-11-24T09:39:47.891Z,100.00
2022-11-24T09:40:47.881Z,100.00
2022-11-24T09:41:47.935Z,100.00
2022-11-24T09:42:53.245Z,100.00
2022-11-24T09:43:48.843Z,100.00
2022-11-24T09:44:47.844Z,100.00
2022-11-24T09:46:04.998Z,100.00
2022-11-24T09:46:48.867Z,100.00
2022-11-24T09:47:47.785Z,100.00
2022-11-24T09:48:47.775Z,100.00
2022-11-24T09:49:51.215Z,100.00
2022-11-24T09:50:50.757Z,100.00
2022-11-24T09:51:50.775Z,100.00
2022-11-24T09:52:47.949Z,100.00
2022-11-24T09:53:47.706Z,100.00
2022-11-24T09:54:47.686Z,100.00
2022-11-24T09:55:47.677Z,100.00
2022-11-24T09:56:47.666Z,100.00
2022-11-24T09:57:47.697Z,100.00
2022-11-24T09:58:47.637Z,100.00
2022-11-24T09:59:47.628Z,100.00
2022-11-24T10:00:47.608Z,100.00
2022-11-24T10:01:47.624Z,100.00
2022-11-24T10:02:47.594Z,100.00
2022-11-24T10:03:47.622Z,100.00
2022-11-24T10:04:47.611Z,100.00
2022-11-24T10:05:47.623Z,100.00
2022-11-24T10:06:47.528Z,100.00
2022-11-24T10:07:47.547Z,100.00
2022-11-24T10:08:47.501Z,100.00
2022-11-24T10:09:47.530Z,100.00
2022-11-24T10:10:50.510Z,100.00
2022-11-24T10:11:50.476Z,100.00
2022-11-24T10:12:47.492Z,100.00
2022-11-24T10:13:47.432Z,100.00
2022-11-24T10:14:47.430Z,100.00
2022-11-24T10:15:47.436Z,100.00
2022-11-24T10:16:47.391Z,100.00
2022-11-24T10:17:47.382Z,100.00
2022-11-24T10:18:47.431Z,100.00
2022-11-24T10:19:47.351Z,100.00
2022-11-24T10:20:47.343Z,100.00
2022-11-24T10:21:47.332Z,100.00
2022-11-24T10:22:47.311Z,100.00
2022-11-24T10:23:47.293Z,100.00
2022-11-24T10:24:47.318Z,100.00
2022-11-24T10:25:47.281Z,100.00
2022-11-24T10:26:47.253Z,100.00
2022-11-24T10:27:47.255Z,100.00
2022-11-24T10:28:47.243Z,100.00
2022-11-24T10:29:47.237Z,100.00
2022-11-24T10:30:50.215Z,100.00
2022-11-24T10:31:50.295Z,100.00
2022-11-24T10:32:47.205Z,100.00
2022-11-24T10:33:47.231Z,100.00
2022-11-24T10:34:47.244Z,100.00
2022-11-24T10:35:47.178Z,100.00
2022-11-24T10:36:47.187Z,100.00
2022-11-24T10:37:47.319Z,100.00
2022-11-24T10:38:47.108Z,100.00
2022-11-24T10:39:47.087Z,100.00
2022-11-24T10:41:02.726Z,100.00
2022-11-24T10:41:48.094Z,100.00
2022-11-24T10:42:47.189Z,100.00
2022-11-24T10:43:47.258Z,100.00
2022-11-24T10:44:47.022Z,100.00
2022-11-24T10:45:47.227Z,100.00
2022-11-24T10:46:47.148Z,100.00
2022-11-24T10:47:47.166Z,100.00
2022-11-24T10:48:46.961Z,100.00
2022-11-24T10:49:47.049Z,100.00
2022-11-24T10:50:50.273Z,100.00
2022-11-24T10:51:49.927Z,100.00
2022-11-24T10:52:46.900Z,100.00
2022-11-24T10:53:46.890Z,100.00
2022-11-24T10:54:46.899Z,100.00
2022-11-24T10:55:46.862Z,100.00
2022-11-24T10:56:46.902Z,100.00
2022-11-24T10:57:46.842Z,100.00
2022-11-24T10:58:46.822Z,100.00
2022-11-24T10:59:46.803Z,100.00
2022-11-24T11:00:46.803Z,100.00
2022-11-24T11:01:46.840Z,100.00
2022-11-24T11:02:46.872Z,100.00
2022-11-24T11:03:46.765Z,100.00
2022-11-24T11:04:46.759Z,100.00
2022-11-24T11:05:46.755Z,100.00
2022-11-24T11:06:46.728Z,100.00
2022-11-24T11:07:46.765Z,100.00
2022-11-24T11:08:46.729Z,100.00
2022-11-24T11:09:46.677Z,100.00
2022-11-24T11:10:49.664Z,100.00
2022-11-24T11:11:49.676Z,100.00
2022-11-24T11:12:46.645Z,100.00
2022-11-24T11:13:46.615Z,100.00
2022-11-24T11:14:46.647Z,100.00
2022-11-24T11:15:46.623Z,100.00
2022-11-24T11:16:46.587Z,100.00
2022-11-24T11:17:46.573Z,100.00
2022-11-24T11:18:46.566Z,100.00
2022-11-24T11:19:49.495Z,100.00
2022-11-24T11:20:46.527Z,100.00
2022-11-24T11:21:46.508Z,100.00
2022-11-24T11:22:46.513Z,100.00
2022-11-24T11:23:46.480Z,100.00
2022-11-24T11:24:46.486Z,100.00
2022-11-24T11:25:46.508Z,100.00
2022-11-24T11:26:46.449Z,100.00
2022-11-24T11:27:46.429Z,100.00
2022-11-24T11:28:46.422Z,100.00
2022-11-24T11:34:02.921Z,100.00
2022-11-24T11:34:04.700Z,100.00
2022-11-24T11:34:47.342Z,100.00
2022-11-24T11:35:46.330Z,100.00
2022-11-24T11:36:46.362Z,100.00
2022-11-24T11:37:46.313Z,100.00
2022-11-24T11:38:46.292Z,100.00
2022-11-24T11:39:48.882Z,100.00
2022-11-24T11:40:46.298Z,100.00
2022-11-24T11:41:46.252Z,100.00
2022-11-24T11:43:01.852Z,100.00
2022-11-24T11:43:47.225Z,100.00
2022-11-24T11:44:46.213Z,100.00
2022-11-24T11:45:46.282Z,100.00
2022-11-24T11:46:46.246Z,100.00
2022-11-24T11:47:46.184Z,100.00
2022-11-24T11:48:46.224Z,100.00
2022-11-24T11:49:46.144Z,100.00
2022-11-24T11:51:21.186Z,100.00
2022-11-24T11:51:50.163Z,100.00
2022-11-24T11:52:46.105Z,100.00
2022-11-24T11:53:46.089Z,100.00
2022-11-24T11:54:46.128Z,100.00
2022-11-24T11:55:49.895Z,100.00
2022-11-24T11:56:46.056Z,100.00
2022-11-24T11:57:46.043Z,100.00
2022-11-24T11:58:46.036Z,100.00
2022-11-24T11:59:46.007Z,100.00
2022-11-24T12:00:46.028Z,100.00
2022-11-24T12:01:45.997Z,100.00
2022-11-24T12:02:51.583Z,100.00
2022-11-24T12:03:47.048Z,100.00
2022-11-24T12:04:46.024Z,100.00
2022-11-24T12:05:45.937Z,100.00
2022-11-24T12:06:45.928Z,100.00
2022-11-24T12:07:45.932Z,100.00
2022-11-24T12:09:18.125Z,100.00
2022-11-24T12:09:46.911Z,100.00
2022-11-24T12:10:48.874Z,100.00
2022-11-24T12:11:48.885Z,100.00
2022-11-24T12:12:45.845Z,100.00
2022-11-24T12:13:45.831Z,100.00
2022-11-24T12:14:45.960Z,100.00
2022-11-24T12:15:45.888Z,100.00
2022-11-24T12:16:45.792Z,100.00
2022-11-24T12:17:45.782Z,100.00
2022-11-24T12:19:01.003Z,100.00
2022-11-24T12:19:46.805Z,100.00
2022-11-24T12:20:45.743Z,100.00
2022-11-24T12:21:45.737Z,100.00
2022-11-24T12:22:45.722Z,100.00
2022-11-24T12:23:45.704Z,100.00
2022-11-24T12:24:45.801Z,100.00
2022-11-24T12:25:45.684Z,100.00
2022-11-24T12:26:45.664Z,100.00
2022-11-24T12:27:45.654Z,100.00
2022-11-24T12:28:45.665Z,100.00
2022-11-24T12:29:45.628Z,100.00
2022-11-24T12:30:48.754Z,100.00
2022-11-24T12:31:48.709Z,100.00
2022-11-24T12:32:45.586Z,100.00
2022-11-24T12:33:50.591Z,100.00
2022-11-24T12:34:46.571Z,100.00
2022-11-24T12:35:45.548Z,100.00
2022-11-24T12:36:45.566Z,100.00
2022-11-24T12:37:45.528Z,100.00
2022-11-24T12:38:46.286Z,100.00